sensor_id;sensor_type;location;lat;lon;timestamp;temperature;humidity
24814;DHT22;12904;50.088;11.414;2022-09-09T00:04:28;11.90;99.90
24814;DHT22;12904;50.088;11.414;2022-09-09T00:07:14;11.80;99.90
24814;DHT22;12904;50.088;11.414;2022-09-09T00:19:56;11.80;99.90
24814;DHT22;12904;50.088;11.414;2022-09-09T00:22:28;11.80;99.90
24814;DHT22;12904;50.088;11.414;2022-09-09T00:25:11;11.80;99.90
24814;DHT22;12904;50.088;11.414;2022-09-09T00:27:45;11.80;99.90
24814;DHT22;12904;50.088;11.414;2022-09-09T00:30:26;11.80;99.90
24814;DHT22;12904;50.088;11.414;2022-09-09T00:32:59;11.70;99.90
24814;DHT22;12904;50.088;11.414;2022-09-09T00:35:31;11.70;99.90
24814;DHT22;12904;50.088;11.414;2022-09-09T00:38:08;11.60;99.90
24814;DHT22;12904;50.088;11.414;2022-09-09T00:40:46;11.50;99.90
24814;DHT22;12904;50.088;11.414;2022-09-09T00:43:37;11.50;99.90
24814;DHT22;12904;50.088;11.414;2022-09-09T00:46:19;11.40;99.90
24814;DHT22;12904;50.088;11.414;2022-09-09T00:51:42;11.40;99.90
24814;DHT22;12904;50.088;11.414;2022-09-09T01:05:17;11.30;99.90
24814;DHT22;12904;50.088;11.414;2022-09-09T01:07:47;11.40;99.90
24814;DHT22;12904;50.088;11.414;2022-09-09T01:10:34;11.40;99.90
24814;DHT22;12904;50.088;11.414;2022-09-09T01:13:07;11.40;99.90
24814;DHT22;12904;50.088;11.414;2022-09-09T01:15:39;11.40;99.90
24814;DHT22;12904;50.088;11.414;2022-09-09T01:18:10;11.50;99.90
24814;DHT22;12904;50.088;11.414;2022-09-09T01:28:51;11.70;99.90
24814;DHT22;12904;50.088;11.414;2022-09-09T01:31:19;11.80;99.90
24814;DHT22;12904;50.088;11.414;2022-09-09T01:33:45;11.90;99.90
24814;DHT22;12904;50.088;11.414;2022-09-09T01:36:39;12.00;99.90
24814;DHT22;12904;50.088;11.414;2022-09-09T01:39:06;12.10;99.90
24814;DHT22;12904;50.088;11.414;2022-09-09T01:41:32;12.10;99.90
24814;DHT22;12904;50.088;11.414;2022-09-09T01:43:57;12.20;99.90
24814;DHT22;12904;50.088;11.414;2022-09-09T01:46:23;12.20;99.90
24814;DHT22;12904;50.088;11.414;2022-09-09T01:48:53;12.20;99.90
24814;DHT22;12904;50.088;11.414;2022-09-09T01:51:20;12.30;99.90
24814;DHT22;12904;50.088;11.414;2022-09-09T01:53:46;12.30;99.90
24814;DHT22;12904;50.088;11.414;2022-09-09T02:07:53;12.20;99.90
24814;DHT22;12904;50.088;11.414;2022-09-09T02:10:32;12.10;99.90
24814;DHT22;12904;50.088;11.414;2022-09-09T02:13:09;12.10;99.90
24814;DHT22;12904;50.088;11.414;2022-09-09T02:15:44;12.10;99.90
24814;DHT22;12904;50.088;11.414;2022-09-09T02:18:13;12.10;99.90
24814;DHT22;12904;50.088;11.414;2022-09-09T02:20:43;12.00;99.90
24814;DHT22;12904;50.088;11.414;2022-09-09T02:23:11;12.00;99.90
24814;DHT22;12904;50.088;11.414;2022-09-09T02:25:40;12.00;99.90
24814;DHT22;12904;50.088;11.414;2022-09-09T02:28:08;12.00;99.90
24814;DHT22;12904;50.088;11.414;2022-09-09T02:30:35;12.00;99.90
24814;DHT22;12904;50.088;11.414;2022-09-09T02:33:04;11.90;99.90
24814;DHT22;12904;50.088;11.414;2022-09-09T02:35:32;11.90;99.90
24814;DHT22;12904;50.088;11.414;2022-09-09T02:38:02;11.90;99.90
24814;DHT22;12904;50.088;11.414;2022-09-09T02:40:29;11.90;99.90
24814;DHT22;12904;50.088;11.414;2022-09-09T02:42:55;11.90;99.90
24814;DHT22;12904;50.088;11.414;2022-09-09T02:45:25;11.90;99.90
24814;DHT22;12904;50.088;11.414;2022-09-09T02:51:04;12.00;99.90
24814;DHT22;12904;50.088;11.414;2022-09-09T02:54:23;12.00;99.90
24814;DHT22;12904;50.088;11.414;2022-09-09T02:56:47;12.00;99.90
24814;DHT22;12904;50.088;11.414;2022-09-09T02:59:16;12.00;99.90
24814;DHT22;12904;50.088;11.414;2022-09-09T03:01:43;12.00;99.90
24814;DHT22;12904;50.088;11.414;2022-09-09T03:04:09;12.00;99.90
24814;DHT22;12904;50.088;11.414;2022-09-09T03:06:35;12.00;99.90
24814;DHT22;12904;50.088;11.414;2022-09-09T03:09:01;12.00;99.90
24814;DHT22;12904;50.088;11.414;2022-09-09T03:11:28;12.10;99.90
24814;DHT22;12904;50.088;11.414;2022-09-09T03:13:54;12.10;99.90
24814;DHT22;12904;50.088;11.414;2022-09-09T03:16:22;12.10;99.90
24814;DHT22;12904;50.088;11.414;2022-09-09T03:18:47;12.20;99.90
24814;DHT22;12904;50.088;11.414;2022-09-09T03:21:13;12.20;99.90
24814;DHT22;12904;50.088;11.414;2022-09-09T03:23:39;12.20;99.90
24814;DHT22;12904;50.088;11.414;2022-09-09T03:26:05;12.20;99.90
24814;DHT22;12904;50.088;11.414;2022-09-09T03:28:31;12.20;99.90
24814;DHT22;12904;50.088;11.414;2022-09-09T03:31:05;12.20;99.90
24814;DHT22;12904;50.088;11.414;2022-09-09T03:33:31;12.30;99.90
24814;DHT22;12904;50.088;11.414;2022-09-09T03:35:57;12.30;99.90
24814;DHT22;12904;50.088;11.414;2022-09-09T03:38:24;12.30;99.90
24814;DHT22;12904;50.088;11.414;2022-09-09T03:40:58;12.30;99.90
24814;DHT22;12904;50.088;11.414;2022-09-09T03:43:25;12.40;99.90
24814;DHT22;12904;50.088;11.414;2022-09-09T03:45:51;12.40;99.90
24814;DHT22;12904;50.088;11.414;2022-09-09T03:48:18;12.50;99.90
24814;DHT22;12904;50.088;11.414;2022-09-09T03:50:46;12.50;99.90
24814;DHT22;12904;50.088;11.414;2022-09-09T03:53:11;12.60;99.90
24814;DHT22;12904;50.088;11.414;2022-09-09T03:55:37;12.60;99.90
24814;DHT22;12904;50.088;11.414;2022-09-09T03:58:03;12.60;99.90
24814;DHT22;12904;50.088;11.414;2022-09-09T04:00:29;12.60;99.90
24814;DHT22;12904;50.088;11.414;2022-09-09T04:02:55;12.60;99.90
24814;DHT22;12904;50.088;11.414;2022-09-09T04:05:22;12.50;99.90
24814;DHT22;12904;50.088;11.414;2022-09-09T04:07:47;12.50;99.90
24814;DHT22;12904;50.088;11.414;2022-09-09T04:10:13;12.50;99.90
24814;DHT22;12904;50.088;11.414;2022-09-09T04:12:39;12.50;99.90
24814;DHT22;12904;50.088;11.414;2022-09-09T04:15:05;12.60;99.90
24814;DHT22;12904;50.088;11.414;2022-09-09T04:17:31;12.60;99.90
24814;DHT22;12904;50.088;11.414;2022-09-09T04:19:56;12.60;99.90
24814;DHT22;12904;50.088;11.414;2022-09-09T04:22:22;12.60;99.90
24814;DHT22;12904;50.088;11.414;2022-09-09T04:24:48;12.60;99.90
24814;DHT22;12904;50.088;11.414;2022-09-09T04:27:13;12.60;99.90
24814;DHT22;12904;50.088;11.414;2022-09-09T04:29:39;12.60;99.90
24814;DHT22;12904;50.088;11.414;2022-09-09T04:32:04;12.50;99.90
24814;DHT22;12904;50.088;11.414;2022-09-09T04:34:30;12.50;99.90
24814;DHT22;12904;50.088;11.414;2022-09-09T04:36:56;12.50;99.90
24814;DHT22;12904;50.088;11.414;2022-09-09T04:39:22;12.50;99.90
24814;DHT22;12904;50.088;11.414;2022-09-09T04:41:48;12.50;99.90
24814;DHT22;12904;50.088;11.414;2022-09-09T04:44:14;12.50;99.90
24814;DHT22;12904;50.088;11.414;2022-09-09T04:46:39;12.50;99.90
24814;DHT22;12904;50.088;11.414;2022-09-09T04:49:06;12.50;99.90
24814;DHT22;12904;50.088;11.414;2022-09-09T04:51:32;12.60;99.90
24814;DHT22;12904;50.088;11.414;2022-09-09T04:53:58;12.60;99.90
24814;DHT22;12904;50.088;11.414;2022-09-09T04:56:23;12.70;99.90
24814;DHT22;12904;50.088;11.414;2022-09-09T04:58:52;12.70;99.90
24814;DHT22;12904;50.088;11.414;2022-09-09T05:01:19;12.70;99.90
24814;DHT22;12904;50.088;11.414;2022-09-09T05:03:46;12.80;99.90
24814;DHT22;12904;50.088;11.414;2022-09-09T05:06:15;12.80;99.90
24814;DHT22;12904;50.088;11.414;2022-09-09T05:08:42;12.80;99.90
24814;DHT22;12904;50.088;11.414;2022-09-09T05:11:19;12.90;99.90
24814;DHT22;12904;50.088;11.414;2022-09-09T05:13:46;12.90;99.90
24814;DHT22;12904;50.088;11.414;2022-09-09T05:16:13;13.00;99.90
24814;DHT22;12904;50.088;11.414;2022-09-09T05:18:39;13.00;99.90
24814;DHT22;12904;50.088;11.414;2022-09-09T05:21:06;13.10;99.90
24814;DHT22;12904;50.088;11.414;2022-09-09T05:23:33;13.10;99.90
24814;DHT22;12904;50.088;11.414;2022-09-09T05:25:59;13.10;99.90
24814;DHT22;12904;50.088;11.414;2022-09-09T05:28:26;13.20;99.90
24814;DHT22;12904;50.088;11.414;2022-09-09T05:31:00;13.20;99.90
24814;DHT22;12904;50.088;11.414;2022-09-09T05:33:27;13.20;99.90
24814;DHT22;12904;50.088;11.414;2022-09-09T05:36:00;13.20;99.90
24814;DHT22;12904;50.088;11.414;2022-09-09T05:38:28;13.30;99.90
24814;DHT22;12904;50.088;11.414;2022-09-09T05:40:54;13.30;99.90
24814;DHT22;12904;50.088;11.414;2022-09-09T05:43:20;13.30;99.90
24814;DHT22;12904;50.088;11.414;2022-09-09T05:45:47;13.40;99.90
24814;DHT22;12904;50.088;11.414;2022-09-09T05:48:14;13.40;99.90
24814;DHT22;12904;50.088;11.414;2022-09-09T05:50:41;13.40;99.90
24814;DHT22;12904;50.088;11.414;2022-09-09T05:53:06;13.50;99.90
24814;DHT22;12904;50.088;11.414;2022-09-09T05:55:32;13.50;99.90
24814;DHT22;12904;50.088;11.414;2022-09-09T05:57:57;13.60;99.90
24814;DHT22;12904;50.088;11.414;2022-09-09T06:00:23;13.80;99.90
24814;DHT22;12904;50.088;11.414;2022-09-09T06:02:52;13.80;99.90
24814;DHT22;12904;50.088;11.414;2022-09-09T06:05:18;13.90;99.90
24814;DHT22;12904;50.088;11.414;2022-09-09T06:07:44;14.00;99.90
24814;DHT22;12904;50.088;11.414;2022-09-09T06:10:11;14.00;99.90
24814;DHT22;12904;50.088;11.414;2022-09-09T06:12:39;14.20;99.90
24814;DHT22;12904;50.088;11.414;2022-09-09T06:15:05;14.30;99.90
24814;DHT22;12904;50.088;11.414;2022-09-09T06:17:31;14.40;99.90
24814;DHT22;12904;50.088;11.414;2022-09-09T06:19:56;14.60;99.90
24814;DHT22;12904;50.088;11.414;2022-09-09T06:22:22;14.70;99.90
24814;DHT22;12904;50.088;11.414;2022-09-09T06:24:48;14.80;99.90
24814;DHT22;12904;50.088;11.414;2022-09-09T06:27:13;15.00;99.90
24814;DHT22;12904;50.088;11.414;2022-09-09T06:29:39;15.10;99.90
24814;DHT22;12904;50.088;11.414;2022-09-09T06:32:05;15.20;99.90
24814;DHT22;12904;50.088;11.414;2022-09-09T06:34:30;15.20;99.90
24814;DHT22;12904;50.088;11.414;2022-09-09T06:36:56;15.30;99.90
24814;DHT22;12904;50.088;11.414;2022-09-09T06:39:23;15.60;99.90
24814;DHT22;12904;50.088;11.414;2022-09-09T06:41:49;16.00;99.90
24814;DHT22;12904;50.088;11.414;2022-09-09T06:44:15;17.10;99.90
24814;DHT22;12904;50.088;11.414;2022-09-09T06:46:41;17.80;99.90
24814;DHT22;12904;50.088;11.414;2022-09-09T06:49:09;17.80;99.90
24814;DHT22;12904;50.088;11.414;2022-09-09T06:51:36;17.50;99.90
24814;DHT22;12904;50.088;11.414;2022-09-09T06:54:03;17.10;99.90
24814;DHT22;12904;50.088;11.414;2022-09-09T06:56:34;16.80;99.90
24814;DHT22;12904;50.088;11.414;2022-09-09T06:59:05;16.60;99.90
24814;DHT22;12904;50.088;11.414;2022-09-09T07:01:37;16.40;99.90
24814;DHT22;12904;50.088;11.414;2022-09-09T07:04:04;16.30;99.90
24814;DHT22;12904;50.088;11.414;2022-09-09T07:06:34;16.40;99.90
24814;DHT22;12904;50.088;11.414;2022-09-09T07:09:02;17.10;99.90
24814;DHT22;12904;50.088;11.414;2022-09-09T07:11:31;17.90;99.90
24814;DHT22;12904;50.088;11.414;2022-09-09T07:13:58;18.90;99.90
24814;DHT22;12904;50.088;11.414;2022-09-09T07:16:24;20.10;99.90
24814;DHT22;12904;50.088;11.414;2022-09-09T07:18:51;20.50;99.90
24814;DHT22;12904;50.088;11.414;2022-09-09T07:21:18;20.10;99.90
24814;DHT22;12904;50.088;11.414;2022-09-09T07:23:46;19.70;99.90
24814;DHT22;12904;50.088;11.414;2022-09-09T07:26:17;19.30;99.90
24814;DHT22;12904;50.088;11.414;2022-09-09T07:28:44;19.80;99.90
24814;DHT22;12904;50.088;11.414;2022-09-09T07:31:22;20.20;99.90
24814;DHT22;12904;50.088;11.414;2022-09-09T07:33:48;20.60;99.90
24814;DHT22;12904;50.088;11.414;2022-09-09T07:36:16;20.90;99.90
24814;DHT22;12904;50.088;11.414;2022-09-09T07:38:48;20.90;99.90
24814;DHT22;12904;50.088;11.414;2022-09-09T07:41:22;20.70;99.90
24814;DHT22;12904;50.088;11.414;2022-09-09T07:43:49;20.00;99.90
24814;DHT22;12904;50.088;11.414;2022-09-09T07:46:16;19.60;99.90
24814;DHT22;12904;50.088;11.414;2022-09-09T07:48:47;19.30;99.90
24814;DHT22;12904;50.088;11.414;2022-09-09T07:51:18;19.70;99.90
24814;DHT22;12904;50.088;11.414;2022-09-09T07:53:48;20.00;99.90
24814;DHT22;12904;50.088;11.414;2022-09-09T07:56:15;20.10;99.90
24814;DHT22;12904;50.088;11.414;2022-09-09T07:58:48;20.20;99.90
24814;DHT22;12904;50.088;11.414;2022-09-09T08:03:57;19.80;99.90
24814;DHT22;12904;50.088;11.414;2022-09-09T08:06:31;19.50;99.90
24814;DHT22;12904;50.088;11.414;2022-09-09T08:08:58;19.20;99.90
24814;DHT22;12904;50.088;11.414;2022-09-09T08:11:26;18.90;99.90
24814;DHT22;12904;50.088;11.414;2022-09-09T08:13:52;18.70;99.90
24814;DHT22;12904;50.088;11.414;2022-09-09T08:16:24;18.70;99.90
24814;DHT22;12904;50.088;11.414;2022-09-09T08:18:53;19.40;99.90
24814;DHT22;12904;50.088;11.414;2022-09-09T08:21:26;20.80;99.90
24814;DHT22;12904;50.088;11.414;2022-09-09T08:23:56;22.10;99.90
24814;DHT22;12904;50.088;11.414;2022-09-09T08:26:24;23.20;99.90
24814;DHT22;12904;50.088;11.414;2022-09-09T08:28:52;23.60;90.20
24814;DHT22;12904;50.088;11.414;2022-09-09T08:31:21;23.80;87.10
24814;DHT22;12904;50.088;11.414;2022-09-09T08:33:47;23.90;90.20
24814;DHT22;12904;50.088;11.414;2022-09-09T08:36:16;23.60;87.90
24814;DHT22;12904;50.088;11.414;2022-09-09T08:38:43;23.50;91.60
24814;DHT22;12904;50.088;11.414;2022-09-09T08:46:44;24.10;90.60
24814;DHT22;12904;50.088;11.414;2022-09-09T08:52:08;24.50;90.70
24814;DHT22;12904;50.088;11.414;2022-09-09T08:54:38;24.80;78.50
24814;DHT22;12904;50.088;11.414;2022-09-09T08:57:14;25.00;85.00
24814;DHT22;12904;50.088;11.414;2022-09-09T08:59:43;24.90;84.50
24814;DHT22;12904;50.088;11.414;2022-09-09T09:02:19;24.80;83.10
24814;DHT22;12904;50.088;11.414;2022-09-09T09:05:21;24.40;81.20
24814;DHT22;12904;50.088;11.414;2022-09-09T09:13:02;23.70;86.30
24814;DHT22;12904;50.088;11.414;2022-09-09T09:15:35;23.80;91.80
24814;DHT22;12904;50.088;11.414;2022-09-09T09:18:05;23.90;90.60
24814;DHT22;12904;50.088;11.414;2022-09-09T09:20:50;24.20;83.20
24814;DHT22;12904;50.088;11.414;2022-09-09T09:23:32;24.40;82.70
24814;DHT22;12904;50.088;11.414;2022-09-09T09:26:00;24.30;79.20
24814;DHT22;12904;50.088;11.414;2022-09-09T09:28:32;24.20;77.90
24814;DHT22;12904;50.088;11.414;2022-09-09T09:31:06;23.90;81.70
24814;DHT22;12904;50.088;11.414;2022-09-09T09:33:53;23.90;82.30
24814;DHT22;12904;50.088;11.414;2022-09-09T09:36:32;23.90;81.40
24814;DHT22;12904;50.088;11.414;2022-09-09T09:39:00;24.00;80.50
24814;DHT22;12904;50.088;11.414;2022-09-09T09:41:34;24.00;79.70
24814;DHT22;12904;50.088;11.414;2022-09-09T09:44:02;24.30;78.30
24814;DHT22;12904;50.088;11.414;2022-09-09T09:46:28;24.60;77.10
24814;DHT22;12904;50.088;11.414;2022-09-09T09:49:04;25.20;77.10
24814;DHT22;12904;50.088;11.414;2022-09-09T09:51:34;26.00;72.00
24814;DHT22;12904;50.088;11.414;2022-09-09T09:56:35;27.00;64.60
24814;DHT22;12904;50.088;11.414;2022-09-09T09:59:01;26.90;66.30
24814;DHT22;12904;50.088;11.414;2022-09-09T10:01:31;27.00;64.10
24814;DHT22;12904;50.088;11.414;2022-09-09T10:04:21;27.30;64.50
24814;DHT22;12904;50.088;11.414;2022-09-09T10:06:49;28.30;61.60
24814;DHT22;12904;50.088;11.414;2022-09-09T10:09:31;29.20;57.80
24814;DHT22;12904;50.088;11.414;2022-09-09T10:12:23;30.60;57.70
24814;DHT22;12904;50.088;11.414;2022-09-09T10:14:58;31.30;54.60
24814;DHT22;12904;50.088;11.414;2022-09-09T10:22:54;30.80;53.40
24814;DHT22;12904;50.088;11.414;2022-09-09T10:25:36;31.10;52.30
24814;DHT22;12904;50.088;11.414;2022-09-09T10:28:51;31.60;52.00
24814;DHT22;12904;50.088;11.414;2022-09-09T10:33:48;31.50;52.00
24814;DHT22;12904;50.088;11.414;2022-09-09T10:36:23;31.70;51.60
24814;DHT22;12904;50.088;11.414;2022-09-09T10:44:15;31.90;49.30
24814;DHT22;12904;50.088;11.414;2022-09-09T10:55:16;28.60;55.70
24814;DHT22;12904;50.088;11.414;2022-09-09T10:57:46;28.30;55.50
24814;DHT22;12904;50.088;11.414;2022-09-09T11:00:23;28.20;56.60
24814;DHT22;12904;50.088;11.414;2022-09-09T11:02:56;28.10;56.40
24814;DHT22;12904;50.088;11.414;2022-09-09T11:05:29;28.10;56.40
24814;DHT22;12904;50.088;11.414;2022-09-09T11:08:08;28.70;54.50
24814;DHT22;12904;50.088;11.414;2022-09-09T11:10:49;29.50;54.50
24814;DHT22;12904;50.088;11.414;2022-09-09T11:16:21;30.70;52.90
24814;DHT22;12904;50.088;11.414;2022-09-09T11:18:48;31.50;51.20
24814;DHT22;12904;50.088;11.414;2022-09-09T11:21:25;32.10;48.50
24814;DHT22;12904;50.088;11.414;2022-09-09T11:24:11;32.50;47.10
24814;DHT22;12904;50.088;11.414;2022-09-09T11:26:47;32.80;47.90
24814;DHT22;12904;50.088;11.414;2022-09-09T11:32:00;31.70;46.60
24814;DHT22;12904;50.088;11.414;2022-09-09T11:42:43;30.30;48.50
24814;DHT22;12904;50.088;11.414;2022-09-09T11:45:23;27.60;52.80
24814;DHT22;12904;50.088;11.414;2022-09-09T11:47:52;26.40;56.50
24814;DHT22;12904;50.088;11.414;2022-09-09T11:52:45;25.30;62.00
24814;DHT22;12904;50.088;11.414;2022-09-09T11:55:24;25.50;62.10
24814;DHT22;12904;50.088;11.414;2022-09-09T12:00:43;25.70;58.60
24814;DHT22;12904;50.088;11.414;2022-09-09T12:03:43;25.90;59.30
24814;DHT22;12904;50.088;11.414;2022-09-09T12:06:26;25.90;61.10
24814;DHT22;12904;50.088;11.414;2022-09-09T12:09:04;26.70;58.80
24814;DHT22;12904;50.088;11.414;2022-09-09T12:11:30;27.30;57.60
24814;DHT22;12904;50.088;11.414;2022-09-09T12:14:00;27.30;55.10
24814;DHT22;12904;50.088;11.414;2022-09-09T12:16:36;27.50;56.60
24814;DHT22;12904;50.088;11.414;2022-09-09T12:19:17;27.90;56.00
24814;DHT22;12904;50.088;11.414;2022-09-09T12:25:19;29.40;52.80
24814;DHT22;12904;50.088;11.414;2022-09-09T12:33:17;31.10;50.30
24814;DHT22;12904;50.088;11.414;2022-09-09T12:35:46;31.40;48.40
24814;DHT22;12904;50.088;11.414;2022-09-09T12:38:30;31.60;47.80
24814;DHT22;12904;50.088;11.414;2022-09-09T12:40:58;31.60;47.50
24814;DHT22;12904;50.088;11.414;2022-09-09T12:43:28;31.40;46.90
24814;DHT22;12904;50.088;11.414;2022-09-09T12:46:01;30.90;48.30
24814;DHT22;12904;50.088;11.414;2022-09-09T12:48:40;30.60;49.80
24814;DHT22;12904;50.088;11.414;2022-09-09T12:51:24;30.10;50.90
24814;DHT22;12904;50.088;11.414;2022-09-09T12:53:50;30.10;50.80
24814;DHT22;12904;50.088;11.414;2022-09-09T12:56:21;30.20;49.80
24814;DHT22;12904;50.088;11.414;2022-09-09T12:58:50;30.00;48.10
24814;DHT22;12904;50.088;11.414;2022-09-09T13:03:48;29.50;48.60
24814;DHT22;12904;50.088;11.414;2022-09-09T13:06:26;28.70;52.50
24814;DHT22;12904;50.088;11.414;2022-09-09T13:08:53;28.10;54.20
24814;DHT22;12904;50.088;11.414;2022-09-09T13:11:26;27.30;54.90
24814;DHT22;12904;50.088;11.414;2022-09-09T13:13:55;26.90;60.90
24814;DHT22;12904;50.088;11.414;2022-09-09T13:16:30;25.90;67.90
24814;DHT22;12904;50.088;11.414;2022-09-09T13:19:00;25.00;69.20
24814;DHT22;12904;50.088;11.414;2022-09-09T13:21:37;24.10;74.70
24814;DHT22;12904;50.088;11.414;2022-09-09T13:24:05;23.60;96.80
24814;DHT22;12904;50.088;11.414;2022-09-09T13:26:33;23.30;95.80
24814;DHT22;12904;50.088;11.414;2022-09-09T13:29:17;23.30;99.90
24814;DHT22;12904;50.088;11.414;2022-09-09T13:31:46;23.20;98.00
24814;DHT22;12904;50.088;11.414;2022-09-09T13:34:13;23.20;99.90
24814;DHT22;12904;50.088;11.414;2022-09-09T13:36:40;23.10;99.90
24814;DHT22;12904;50.088;11.414;2022-09-09T13:39:16;23.50;99.90
24814;DHT22;12904;50.088;11.414;2022-09-09T13:41:44;23.60;98.60
24814;DHT22;12904;50.088;11.414;2022-09-09T13:44:39;24.00;99.90
24814;DHT22;12904;50.088;11.414;2022-09-09T13:47:19;24.10;92.20
24814;DHT22;12904;50.088;11.414;2022-09-09T13:49:50;23.80;90.80
24814;DHT22;12904;50.088;11.414;2022-09-09T13:52:17;23.70;90.00
24814;DHT22;12904;50.088;11.414;2022-09-09T13:54:53;23.60;81.90
24814;DHT22;12904;50.088;11.414;2022-09-09T13:57:24;23.60;82.70
24814;DHT22;12904;50.088;11.414;2022-09-09T13:59:51;23.80;81.40
24814;DHT22;12904;50.088;11.414;2022-09-09T14:02:18;24.20;79.70
24814;DHT22;12904;50.088;11.414;2022-09-09T14:04:44;24.70;76.20
24814;DHT22;12904;50.088;11.414;2022-09-09T14:07:15;25.10;70.20
24814;DHT22;12904;50.088;11.414;2022-09-09T14:09:42;25.60;65.90
24814;DHT22;12904;50.088;11.414;2022-09-09T14:12:11;25.70;63.80
24814;DHT22;12904;50.088;11.414;2022-09-09T14:14:38;25.80;64.70
24814;DHT22;12904;50.088;11.414;2022-09-09T14:17:04;25.70;64.90
24814;DHT22;12904;50.088;11.414;2022-09-09T14:19:30;25.60;62.90
24814;DHT22;12904;50.088;11.414;2022-09-09T14:21:57;25.60;63.10
24814;DHT22;12904;50.088;11.414;2022-09-09T14:24:23;25.50;62.60
24814;DHT22;12904;50.088;11.414;2022-09-09T14:26:48;25.40;64.20
24814;DHT22;12904;50.088;11.414;2022-09-09T14:29:14;25.60;64.00
24814;DHT22;12904;50.088;11.414;2022-09-09T14:31:40;25.80;61.10
24814;DHT22;12904;50.088;11.414;2022-09-09T14:34:06;26.00;60.10
24814;DHT22;12904;50.088;11.414;2022-09-09T14:36:31;26.30;58.90
24814;DHT22;12904;50.088;11.414;2022-09-09T14:38:58;26.60;59.30
24814;DHT22;12904;50.088;11.414;2022-09-09T14:41:24;26.70;58.10
24814;DHT22;12904;50.088;11.414;2022-09-09T14:43:51;26.70;58.10
24814;DHT22;12904;50.088;11.414;2022-09-09T14:46:18;26.70;58.00
24814;DHT22;12904;50.088;11.414;2022-09-09T14:48:44;26.90;56.90
24814;DHT22;12904;50.088;11.414;2022-09-09T14:51:16;27.10;56.40
24814;DHT22;12904;50.088;11.414;2022-09-09T14:53:43;27.10;56.00
24814;DHT22;12904;50.088;11.414;2022-09-09T14:56:10;27.20;54.50
24814;DHT22;12904;50.088;11.414;2022-09-09T14:58:36;27.20;55.00
24814;DHT22;12904;50.088;11.414;2022-09-09T15:01:08;27.10;54.60
24814;DHT22;12904;50.088;11.414;2022-09-09T15:03:38;27.00;54.40
24814;DHT22;12904;50.088;11.414;2022-09-09T15:06:08;27.00;54.10
24814;DHT22;12904;50.088;11.414;2022-09-09T15:08:36;26.80;55.00
24814;DHT22;12904;50.088;11.414;2022-09-09T15:11:03;26.60;54.40
24814;DHT22;12904;50.088;11.414;2022-09-09T15:13:28;26.40;54.20
24814;DHT22;12904;50.088;11.414;2022-09-09T15:15:54;26.30;55.50
24814;DHT22;12904;50.088;11.414;2022-09-09T15:18:21;26.30;56.00
24814;DHT22;12904;50.088;11.414;2022-09-09T15:20:47;26.40;55.20
24814;DHT22;12904;50.088;11.414;2022-09-09T15:23:13;26.50;54.20
24814;DHT22;12904;50.088;11.414;2022-09-09T15:25:53;26.60;55.70
24814;DHT22;12904;50.088;11.414;2022-09-09T15:28:20;26.30;56.20
24814;DHT22;12904;50.088;11.414;2022-09-09T15:30:49;26.20;57.70
24814;DHT22;12904;50.088;11.414;2022-09-09T15:33:16;26.20;54.40
24814;DHT22;12904;50.088;11.414;2022-09-09T15:35:41;26.20;54.80
24814;DHT22;12904;50.088;11.414;2022-09-09T15:38:07;26.20;54.40
24814;DHT22;12904;50.088;11.414;2022-09-09T15:40:32;26.10;55.60
24814;DHT22;12904;50.088;11.414;2022-09-09T15:42:59;26.00;55.40
24814;DHT22;12904;50.088;11.414;2022-09-09T15:45:24;25.70;56.00
24814;DHT22;12904;50.088;11.414;2022-09-09T15:47:50;25.50;56.00
24814;DHT22;12904;50.088;11.414;2022-09-09T15:50:16;25.30;56.90
24814;DHT22;12904;50.088;11.414;2022-09-09T15:52:41;25.20;57.30
24814;DHT22;12904;50.088;11.414;2022-09-09T15:55:07;25.00;56.50
24814;DHT22;12904;50.088;11.414;2022-09-09T15:57:34;24.90;56.50
24814;DHT22;12904;50.088;11.414;2022-09-09T16:00:03;24.80;56.30
24814;DHT22;12904;50.088;11.414;2022-09-09T16:02:29;24.70;57.10
24814;DHT22;12904;50.088;11.414;2022-09-09T16:04:56;24.60;57.30
24814;DHT22;12904;50.088;11.414;2022-09-09T16:07:22;24.60;57.70
24814;DHT22;12904;50.088;11.414;2022-09-09T16:09:48;24.50;57.10
24814;DHT22;12904;50.088;11.414;2022-09-09T16:12:17;24.40;57.50
24814;DHT22;12904;50.088;11.414;2022-09-09T16:14:42;24.40;57.60
24814;DHT22;12904;50.088;11.414;2022-09-09T16:17:08;24.30;57.60
24814;DHT22;12904;50.088;11.414;2022-09-09T16:19:34;24.30;57.90
24814;DHT22;12904;50.088;11.414;2022-09-09T16:22:00;24.30;59.40
24814;DHT22;12904;50.088;11.414;2022-09-09T16:24:26;24.40;59.00
24814;DHT22;12904;50.088;11.414;2022-09-09T16:26:53;24.40;58.90
24814;DHT22;12904;50.088;11.414;2022-09-09T16:29:20;24.40;58.80
24814;DHT22;12904;50.088;11.414;2022-09-09T16:31:48;24.40;58.10
24814;DHT22;12904;50.088;11.414;2022-09-09T16:34:17;24.30;58.10
24814;DHT22;12904;50.088;11.414;2022-09-09T16:36:44;24.20;58.30
24814;DHT22;12904;50.088;11.414;2022-09-09T16:39:15;23.90;59.40
24814;DHT22;12904;50.088;11.414;2022-09-09T16:41:43;23.70;59.90
24814;DHT22;12904;50.088;11.414;2022-09-09T16:44:11;23.60;60.20
24814;DHT22;12904;50.088;11.414;2022-09-09T16:46:39;23.40;61.90
24814;DHT22;12904;50.088;11.414;2022-09-09T16:49:08;23.20;63.60
24814;DHT22;12904;50.088;11.414;2022-09-09T16:51:46;22.90;65.00
24814;DHT22;12904;50.088;11.414;2022-09-09T16:54:12;22.60;66.80
24814;DHT22;12904;50.088;11.414;2022-09-09T16:56:42;22.30;67.90
24814;DHT22;12904;50.088;11.414;2022-09-09T16:59:13;22.20;68.40
24814;DHT22;12904;50.088;11.414;2022-09-09T17:01:40;22.00;69.10
24814;DHT22;12904;50.088;11.414;2022-09-09T17:04:14;21.90;69.40
24814;DHT22;12904;50.088;11.414;2022-09-09T17:06:42;21.80;68.80
24814;DHT22;12904;50.088;11.414;2022-09-09T17:09:11;21.80;69.20
24814;DHT22;12904;50.088;11.414;2022-09-09T17:11:38;21.70;70.20
24814;DHT22;12904;50.088;11.414;2022-09-09T17:14:05;21.70;70.20
24814;DHT22;12904;50.088;11.414;2022-09-09T17:16:32;21.60;69.50
24814;DHT22;12904;50.088;11.414;2022-09-09T17:18:59;21.60;70.30
24814;DHT22;12904;50.088;11.414;2022-09-09T17:21:27;21.50;68.40
24814;DHT22;12904;50.088;11.414;2022-09-09T17:23:55;21.40;69.50
24814;DHT22;12904;50.088;11.414;2022-09-09T17:26:23;21.30;68.60
24814;DHT22;12904;50.088;11.414;2022-09-09T17:28:50;21.20;69.20
24814;DHT22;12904;50.088;11.414;2022-09-09T17:31:17;21.10;70.10
24814;DHT22;12904;50.088;11.414;2022-09-09T17:33:48;21.00;69.60